Time;durP1;ratioP1;P1;durP2;ratioP2;P2;SDS_P1;SDS_P2;PMS_P1;PMS_P2;Temp;Humidity;BMP_temperature;BMP_pressure;BME280_temperature;BME280_humidity;BME280_pressure;Samples;Min_cycle;Max_cycle;Signal;HPM_P1;HPM_P2
2022/11/04 00:01:49;;;;;;;;;0.00;0.00;;;;;12.55;75.45;99996.19;4995961;28;47540;-67
2022/11/04 00:04:17;;;;;;;;;0.00;0.00;;;;;12.59;75.13;100003.88;4996198;28;45418;-66
2022/11/04 00:06:42;;;;;;;;;0.50;0.50;;;;;12.62;75.16;99990.25;5028201;28;45455;-67
2022/11/04 00:09:10;;;;;;;;;2.50;2.00;;;;;12.58;75.82;99999.50;4996118;28;45319;-67
2022/11/04 00:14:20;;;;;;;;;0.75;0.00;;;;;12.53;75.52;99979.44;4995796;28;45347;-67
2022/11/04 00:28:41;;;;;;;;;3.00;0.00;;;;;12.34;76.41;99946.13;4995940;28;45393;-67
2022/11/04 00:30:27;;;;;;;;;3.75;1.25;;;;;12.51;76.76;99976.00;4995704;28;45393;-67
2022/11/04 00:35:55;;;;;;;;;2.00;0.75;;;;;12.48;76.70;99962.88;4934727;28;45576;-67
2022/11/04 00:38:24;;;;;;;;;1.00;1.00;;;;;12.39;76.57;99951.97;4934850;28;45416;-67
2022/11/04 00:40:50;;;;;;;;;2.75;1.00;;;;;12.11;76.63;99908.66;4934871;28;45321;-67
2022/11/04 00:43:15;;;;;;;;;1.50;0.00;;;;;12.15;76.83;99913.78;4934788;28;45425;-67
2022/11/04 00:45:41;;;;;;;;;0.50;0.00;;;;;12.58;76.86;99971.91;4934955;28;45333;-67
2022/11/04 00:48:07;;;;;;;;;1.25;0.00;;;;;12.41;76.24;99949.16;4934867;28;45440;-67
2022/11/04 00:50:32;;;;;;;;;0.50;0.50;;;;;12.47;76.83;99961.19;4934955;28;45654;-67
2022/11/04 00:53:01;;;;;;;;;2.25;1.00;;;;;12.45;76.70;99943.41;4934711;28;45547;-67
2022/11/04 00:55:27;;;;;;;;;0.00;0.00;;;;;12.52;76.57;99959.00;4934678;28;45591;-66
2022/11/04 00:57:53;;;;;;;;;0.00;0.00;;;;;12.31;76.82;99924.97;4934933;28;45421;-67
2022/11/04 01:00:18;;;;;;;;;2.00;1.00;;;;;12.45;76.66;99963.97;4934614;28;45529;-66
2022/11/04 01:02:44;;;;;;;;;2.00;2.00;;;;;12.46;76.75;99944.28;4934762;28;45972;-67
2022/11/04 01:05:09;;;;;;;;;0.00;0.00;;;;;12.29;76.57;99913.53;4934951;28;45369;-67
2022/11/04 01:07:35;;;;;;;;;0.00;0.00;;;;;12.58;76.47;99947.81;4934984;28;45339;-67
2022/11/04 01:10:00;;;;;;;;;1.00;1.00;;;;;12.59;76.44;99939.66;4968030;28;45524;-67
2022/11/04 01:12:25;;;;;;;;;1.25;0.00;;;;;12.51;77.00;99922.50;4995184;28;45478;-67
2022/11/04 01:14:51;;;;;;;;;1.00;0.50;;;;;12.62;76.81;99933.22;5010425;28;45585;-67
2022/11/04 01:17:16;;;;;;;;;0.25;0.25;;;;;12.59;77.65;99944.13;4995976;28;45414;-67
2022/11/04 01:19:42;;;;;;;;;0.75;0.75;;;;;12.51;78.08;99920.72;4995733;28;45613;-67
2022/11/04 01:22:07;;;;;;;;;2.50;1.50;;;;;12.47;78.15;99924.59;4995044;28;46656;-67
2022/11/04 01:24:32;;;;;;;;;2.00;1.00;;;;;12.56;78.12;99928.34;4994925;28;45350;-66
2022/11/04 01:26:58;;;;;;;;;1.00;0.00;;;;;12.40;77.70;99918.03;4995208;28;45310;-66
2022/11/04 01:29:23;;;;;;;;;4.00;1.00;;;;;12.45;77.98;99918.50;4995278;28;45649;-66
2022/11/04 01:31:49;;;;;;;;;1.00;1.00;;;;;12.39;77.68;99910.97;5026217;28;46045;-66
2022/11/04 01:34:14;;;;;;;;;3.00;2.00;;;;;12.52;77.64;99921.53;4994810;28;45406;-66
2022/11/04 01:36:39;;;;;;;;;2.25;1.25;;;;;12.19;77.43;99872.47;4995055;28;45549;-66
2022/11/04 01:39:05;;;;;;;;;0.25;0.00;;;;;12.27;77.91;99886.91;5027057;28;45418;-66
2022/11/04 01:41:32;;;;;;;;;2.00;0.00;;;;;12.28;78.09;99909.16;5026396;28;46363;-66
2022/11/04 01:44:39;;;;;;;;;0.75;0.00;;;;;12.34;77.68;99908.66;4994734;28;45355;-66
2022/11/04 01:47:04;;;;;;;;;0.25;0.25;;;;;12.39;77.90;99905.63;5009809;28;45355;-66
2022/11/04 01:49:34;;;;;;;;;1.25;0.25;;;;;12.28;77.56;99895.78;4994888;28;45343;-66
2022/11/04 01:52:05;;;;;;;;;2.00;0.00;;;;;12.34;77.44;99903.31;4994769;28;45712;-66
2022/11/04 01:54:31;;;;;;;;;0.00;0.00;;;;;12.26;77.38;99881.69;5026505;28;45390;-67
2022/11/04 01:56:59;;;;;;;;;0.00;0.00;;;;;12.27;77.67;99881.56;4994840;28;45357;-67
2022/11/04 01:59:31;;;;;;;;;0.00;0.00;;;;;11.80;77.31;99795.31;4994796;28;45358;-67
2022/11/04 02:01:57;;;;;;;;;0.00;0.00;;;;;12.06;76.66;99840.50;4994350;28;46616;-66
2022/11/04 02:04:26;;;;;;;;;1.00;0.00;;;;;12.21;77.38;99866.00;4993111;28;45451;-66
2022/11/04 02:07:12;;;;;;;;;0.00;0.00;;;;;12.04;77.36;99848.66;4994684;28;45565;-66
2022/11/04 02:09:40;;;;;;;;;0.00;0.00;;;;;12.30;76.96;99901.88;4994135;28;45641;-66
2022/11/04 02:14:51;;;;;;;;;3.50;0.00;;;;;12.18;76.68;99870.78;4994368;28;45358;-66
2022/11/04 02:17:17;;;;;;;;;2.00;1.00;;;;;12.27;77.35;99873.56;4994300;28;45429;-67
2022/11/04 02:19:54;;;;;;;;;0.00;0.00;;;;;12.26;77.43;99871.84;4994275;28;45537;-67
2022/11/04 02:22:31;;;;;;;;;3.50;0.25;;;;;12.28;77.34;99871.72;4994007;28;45659;-67
2022/11/04 02:25:34;;;;;;;;;0.00;0.00;;;;;12.30;76.77;99876.97;4994218;28;45437;-67
2022/11/04 02:28:02;;;;;;;;;0.00;0.00;;;;;12.30;77.18;99875.13;4995567;28;45324;-67
2022/11/04 02:30:34;;;;;;;;;0.00;0.00;;;;;12.27;77.21;99891.44;4996486;28;45463;-67
2022/11/04 02:33:25;;;;;;;;;2.00;1.00;;;;;12.27;77.40;99888.75;4993124;28;47525;-66
2022/11/04 02:36:11;;;;;;;;;2.00;1.00;;;;;12.20;77.00;99880.38;4996306;28;45624;-66
2022/11/04 02:38:54;;;;;;;;;0.00;0.00;;;;;12.24;77.00;99888.97;4996270;28;45308;-67
2022/11/04 02:41:44;;;;;;;;;0.75;0.75;;;;;12.00;77.21;99852.56;4997977;28;45923;-66
2022/11/04 02:44:17;;;;;;;;;0.00;0.00;;;;;12.16;77.12;99867.34;4997660;28;45425;-67
2022/11/04 02:47:02;;;;;;;;;1.00;1.00;;;;;12.19;77.65;99872.47;4998189;28;45417;-66
2022/11/04 02:49:37;;;;;;;;;1.00;1.00;;;;;12.29;77.44;99892.13;4997901;28;45509;-67
2022/11/04 02:52:17;;;;;;;;;0.25;0.00;;;;;12.20;77.53;99856.31;4997336;28;45552;-65
2022/11/04 02:54:53;;;;;;;;;1.00;0.00;;;;;11.96;77.61;99811.00;5029100;28;46645;-66
2022/11/04 02:57:24;;;;;;;;;0.00;0.00;;;;;12.31;77.52;99871.50;4997275;28;45358;-66
2022/11/04 02:59:58;;;;;;;;;0.00;0.00;;;;;12.34;77.73;99873.91;4997091;28;45523;-66
2022/11/04 03:02:36;;;;;;;;;0.00;0.00;;;;;12.33;77.63;99866.00;4997511;28;45415;-68
2022/11/04 03:05:05;;;;;;;;;0.75;0.00;;;;;12.26;77.68;99846.94;4996957;28;46360;-70
2022/11/04 03:07:35;;;;;;;;;1.00;0.00;;;;;12.44;77.63;99863.31;4997263;28;45337;-68
2022/11/04 03:10:06;;;;;;;;;0.00;0.00;;;;;12.44;77.28;99865.97;4997699;28;45774;-68
2022/11/04 03:12:39;;;;;;;;;0.75;0.00;;;;;12.45;77.14;99851.63;4996970;28;45384;-69
2022/11/04 03:15:12;;;;;;;;;3.00;0.00;;;;;11.69;77.06;99736.56;4996661;28;45376;-68
2022/11/04 03:17:53;;;;;;;;;1.00;0.00;;;;;12.34;77.37;99839.13;4997182;28;45506;-68
2022/11/04 03:20:26;;;;;;;;;0.00;0.00;;;;;12.51;77.24;99850.28;4996951;28;45390;-68
2022/11/04 03:22:58;;;;;;;;;0.00;0.00;;;;;12.52;76.65;99846.66;4997085;28;45340;-69
2022/11/04 03:25:28;;;;;;;;;1.00;0.00;;;;;12.15;76.88;99780.97;4996688;28;46339;-68
2022/11/04 03:28:14;;;;;;;;;1.00;0.00;;;;;12.49;76.42;99826.34;4996565;28;45450;-69
2022/11/04 03:30:46;;;;;;;;;0.00;0.00;;;;;12.47;76.45;99822.97;4996570;28;45425;-69
2022/11/04 03:33:40;;;;;;;;;1.50;0.00;;;;;12.59;76.12;99853.19;4996887;28;45456;-69
2022/11/04 03:36:07;;;;;;;;;0.00;0.00;;;;;12.52;75.99;99835.94;4996720;28;46407;-68
2022/11/04 03:38:34;;;;;;;;;0.00;0.00;;;;;12.17;75.79;99776.31;4996879;28;45426;-68
2022/11/04 03:41:02;;;;;;;;;1.00;0.00;;;;;12.32;75.78;99797.44;4996550;28;45422;-68
2022/11/04 03:43:29;;;;;;;;;0.00;0.00;;;;;12.43;75.66;99817.00;4996602;28;45430;-68
2022/11/04 03:45:55;;;;;;;;;0.00;0.00;;;;;12.43;75.90;99813.47;5011447;28;45840;-68
2022/11/04 03:48:22;;;;;;;;;1.75;0.75;;;;;12.41;75.55;99818.94;5011113;28;45764;-68
2022/11/04 03:50:49;;;;;;;;;0.00;0.00;;;;;12.34;76.43;99801.69;4996836;28;45358;-69
2022/11/04 03:53:20;;;;;;;;;0.00;0.00;;;;;12.18;75.76;99777.19;4995346;28;45492;-69
2022/11/04 03:56:07;;;;;;;;;0.00;0.00;;;;;12.50;76.06;99837.88;4996104;28;45956;-69
2022/11/04 03:59:03;;;;;;;;;0.00;0.00;;;;;12.52;76.09;99831.44;4996101;28;45343;-68
2022/11/04 04:02:02;;;;;;;;;1.25;0.75;;;;;12.54;75.87;99844.72;4996614;28;45528;-69
2022/11/04 04:04:31;;;;;;;;;0.00;0.00;;;;;12.43;75.86;99830.38;4994911;28;45535;-68
2022/11/04 04:07:04;;;;;;;;;2.00;0.00;;;;;12.49;76.19;99847.75;4996104;28;46213;-69
2022/11/04 04:09:41;;;;;;;;;0.25;0.25;;;;;12.46;75.64;99837.28;4996156;28;45310;-69
2022/11/04 04:12:16;;;;;;;;;0.00;0.00;;;;;12.58;75.09;99846.16;4996179;28;45372;-69
2022/11/04 04:14:56;;;;;;;;;1.67;0.00;;;;;12.46;75.39;99829.28;4996208;28;45467;-69
2022/11/04 04:17:36;;;;;;;;;0.00;0.00;;;;;12.55;75.41;99851.72;5011449;28;47395;-69
2022/11/04 04:20:16;;;;;;;;;0.00;0.00;;;;;12.52;75.53;99855.50;4995905;28;45429;-68
2022/11/04 04:22:51;;;;;;;;;2.00;0.00;;;;;12.50;75.33;99859.28;4996215;28;45504;-68
2022/11/04 04:28:04;;;;;;;;;0.00;0.00;;;;;12.40;75.74;99844.00;4995791;28;45557;-69
2022/11/04 04:30:30;;;;;;;;;1.00;1.00;;;;;12.51;75.33;99860.97;4995812;28;45465;-69
2022/11/04 04:33:04;;;;;;;;;0.00;0.00;;;;;12.15;75.38;99801.47;4994822;28;45613;-69
2022/11/04 04:35:40;;;;;;;;;0.00;0.00;;;;;12.48;75.61;99850.53;4996190;28;45351;-69
2022/11/04 04:46:38;;;;;;;;;0.00;0.00;;;;;11.81;76.15;99756.06;4995829;28;45503;-68
2022/11/04 04:49:08;;;;;;;;;0.00;0.00;;;;;12.50;76.00;99867.31;4995866;28;46776;-69
2022/11/04 04:51:38;;;;;;;;;0.50;0.00;;;;;12.43;75.83;99854.44;4995527;28;45450;-68
2022/11/04 04:54:03;;;;;;;;;0.00;0.00;;;;;12.16;76.08;99820.09;4995470;28;45427;-68
2022/11/04 04:56:29;;;;;;;;;0.00;0.00;;;;;11.84;75.53;99772.72;4995166;28;45420;-68
2022/11/04 04:58:54;;;;;;;;;0.00;0.00;;;;;12.38;75.64;99853.97;4994992;28;45417;-68
2022/11/04 05:01:19;;;;;;;;;1.33;0.00;;;;;12.29;75.53;99841.34;4994506;28;45658;-66
2022/11/04 05:03:45;;;;;;;;;0.25;0.00;;;;;12.40;75.31;99854.69;4996042;28;45399;-67
2022/11/04 05:06:10;;;;;;;;;0.75;0.00;;;;;12.50;75.29;99875.31;4996333;28;45505;-66
2022/11/04 05:08:36;;;;;;;;;0.00;0.00;;;;;12.24;74.68;99822.13;4995266;28;46586;-67
2022/11/04 05:11:01;;;;;;;;;0.00;0.00;;;;;12.30;74.82;99836.84;4995333;28;45474;-67
2022/11/04 05:13:28;;;;;;;;;0.00;0.00;;;;;12.50;75.44;99867.31;4995347;28;45410;-66
2022/11/04 05:15:56;;;;;;;;;0.00;0.00;;;;;12.47;75.20;99880.94;4995274;28;45512;-66
2022/11/04 05:18:21;;;;;;;;;4.00;0.00;;;;;12.40;75.12;99876.09;4995107;28;45528;-66
2022/11/04 05:20:47;;;;;;;;;1.00;0.00;;;;;12.26;75.38;99855.78;4994813;28;45380;-66
2022/11/04 05:23:13;;;;;;;;;0.00;0.00;;;;;12.40;75.36;99872.56;4995398;28;45315;-67
2022/11/04 05:25:40;;;;;;;;;0.00;0.00;;;;;11.75;75.51;99760.91;4995208;28;45341;-67
2022/11/04 05:28:06;;;;;;;;;0.25;0.25;;;;;12.33;75.22;99871.34;4994983;28;46256;-67
2022/11/04 05:30:32;;;;;;;;;0.00;0.00;;;;;12.42;75.30;99890.19;5026406;28;45355;-67
2022/11/04 05:32:58;;;;;;;;;0.75;0.00;;;;;12.23;75.29;99852.53;4995201;28;45346;-67
2022/11/04 05:35:23;;;;;;;;;0.00;0.00;;;;;12.24;75.67;99855.09;4994867;28;45507;-67
2022/11/04 05:37:48;;;;;;;;;0.00;0.00;;;;;12.35;75.42;99875.63;4994481;28;46187;-67
2022/11/04 05:40:14;;;;;;;;;2.25;1.00;;;;;12.40;75.66;99884.13;4994642;28;45438;-67
2022/11/04 05:42:39;;;;;;;;;0.00;0.00;;;;;12.27;75.21;99851.31;4994840;28;45442;-67
2022/11/04 05:45:05;;;;;;;;;0.00;0.00;;;;;12.18;75.47;99839.53;4994775;28;45485;-66
2022/11/04 05:47:30;;;;;;;;;2.00;0.00;;;;;12.41;75.45;99887.63;4994705;28;46743;-67
2022/11/04 05:49:56;;;;;;;;;0.00;0.00;;;;;12.17;75.24;99853.84;4994658;28;45358;-66
2022/11/04 05:52:21;;;;;;;;;0.00;0.00;;;;;12.30;75.42;99883.16;4993315;28;45415;-67
2022/11/04 05:54:46;;;;;;;;;1.00;0.00;;;;;12.22;75.27;99877.56;4994685;28;45690;-67
2022/11/04 05:57:12;;;;;;;;;0.00;0.00;;;;;12.33;75.67;99895.44;4994525;28;45564;-67
2022/11/04 05:59:37;;;;;;;;;0.00;0.00;;;;;12.27;75.79;99886.09;4994439;28;45406;-67
2022/11/04 06:02:03;;;;;;;;;0.00;0.00;;;;;11.94;75.33;99845.88;4995014;28;45342;-67
2022/11/04 06:04:28;;;;;;;;;0.00;0.00;;;;;12.28;75.87;99903.81;4994615;28;45429;-66
2022/11/04 06:06:54;;;;;;;;;0.00;0.00;;;;;12.33;75.24;99911.47;4994245;28;46299;-66
2022/11/04 06:09:19;;;;;;;;;1.75;0.00;;;;;12.35;75.78;99913.06;4993360;28;45414;-67
2022/11/04 06:11:45;;;;;;;;;0.00;0.00;;;;;12.27;75.27;99902.97;4994472;28;45351;-66
2022/11/04 06:14:11;;;;;;;;;0.00;0.00;;;;;12.24;75.57;99905.03;4994414;28;45452;-66
2022/11/04 06:16:36;;;;;;;;;1.00;0.00;;;;;11.77;75.12;99815.09;4994101;28;45712;-67
2022/11/04 06:19:02;;;;;;;;;0.00;0.00;;;;;12.03;75.09;99865.66;5009171;28;45443;-67
2022/11/04 06:21:30;;;;;;;;;0.00;0.00;;;;;12.44;74.75;99931.03;4994241;28;45433;-67
2022/11/04 06:23:57;;;;;;;;;0.75;0.75;;;;;12.43;75.32;99933.81;4994293;28;45605;-66
2022/11/04 06:26:24;;;;;;;;;0.75;0.00;;;;;12.29;75.08;99910.84;4993964;28;46452;-67
2022/11/04 06:28:49;;;;;;;;;0.00;0.00;;;;;12.48;75.41;99936.97;4994408;28;45498;-67
2022/11/04 06:31:15;;;;;;;;;0.00;0.00;;;;;12.20;75.01;99892.88;4993995;28;45363;-67
2022/11/04 06:33:41;;;;;;;;;0.00;0.00;;;;;12.03;75.09;99870.16;4993165;28;45411;-67
2022/11/04 06:36:09;;;;;;;;;1.00;0.00;;;;;12.48;75.39;99941.50;4994146;28;46636;-67
2022/11/04 06:38:39;;;;;;;;;0.25;0.25;;;;;12.54;74.75;99947.19;4993974;28;45446;-67
2022/11/04 06:41:06;;;;;;;;;0.00;0.00;;;;;12.53;74.71;99941.97;4994247;28;45484;-67
2022/11/04 06:43:32;;;;;;;;;0.00;0.00;;;;;12.49;74.66;99944.03;4994050;28;45358;-67
2022/11/04 06:45:59;;;;;;;;;1.00;0.00;;;;;12.45;74.82;99939.91;4993979;28;46169;-66
2022/11/04 06:48:26;;;;;;;;;0.00;0.00;;;;;12.46;74.91;99930.91;4993997;28;45533;-67
2022/11/04 06:50:51;;;;;;;;;4.00;0.00;;;;;12.59;74.68;99952.16;4993825;28;45437;-66
2022/11/04 06:53:17;;;;;;;;;1.00;1.00;;;;;12.50;74.19;99937.72;4993909;28;45675;-66
2022/11/04 06:55:43;;;;;;;;;1.25;1.00;;;;;12.54;74.42;99943.69;4993797;28;45434;-67
2022/11/04 06:58:08;;;;;;;;;1.00;0.00;;;;;12.54;74.32;99943.69;4993767;28;45407;-66
2022/11/04 07:00:34;;;;;;;;;1.00;0.50;;;;;12.55;74.22;99948.03;4993490;28;45860;-66
2022/11/04 07:02:59;;;;;;;;;1.00;0.00;;;;;12.54;74.11;99957.06;4976339;28;45698;-66
2022/11/04 07:05:24;;;;;;;;;2.00;1.00;;;;;12.56;74.29;99955.09;4993833;28;45373;-67
2022/11/04 07:07:50;;;;;;;;;1.00;0.00;;;;;12.36;74.55;99921.91;4993676;28;45530;-66
2022/11/04 07:10:16;;;;;;;;;1.25;1.25;;;;;12.54;74.98;99960.56;4992409;28;45362;-66
2022/11/04 07:12:41;;;;;;;;;1.00;0.00;;;;;12.50;74.52;99951.09;4993628;28;45403;-66
2022/11/04 07:15:07;;;;;;;;;0.00;0.00;;;;;12.67;74.41;99973.81;4993273;28;46411;-66
2022/11/04 07:17:32;;;;;;;;;0.00;0.00;;;;;12.66;74.51;99980.16;4993586;28;45350;-66
2022/11/04 07:19:58;;;;;;;;;1.00;0.00;;;;;12.62;74.99;99976.88;4993443;28;45377;-66
2022/11/04 07:22:23;;;;;;;;;1.00;0.00;;;;;12.73;74.31;99997.41;5028131;28;45304;-66
2022/11/04 07:24:48;;;;;;;;;0.00;0.00;;;;;12.42;74.51;99946.34;4997195;28;45300;-67
2022/11/04 07:27:14;;;;;;;;;0.25;0.25;;;;;12.68;74.16;99990.72;4997036;28;45620;-66
2022/11/04 07:29:39;;;;;;;;;1.00;0.00;;;;;12.75;74.53;100003.50;4995580;28;45513;-67
2022/11/04 07:32:05;;;;;;;;;4.00;1.00;;;;;12.48;73.57;99966.41;4996959;28;45376;-67
2022/11/04 07:34:30;;;;;;;;;1.00;0.00;;;;;12.71;74.04;100014.56;4996517;28;45928;-67
2022/11/04 07:36:56;;;;;;;;;0.00;0.00;;;;;12.61;74.14;100011.78;4996755;28;45359;-67
2022/11/04 07:39:21;;;;;;;;;3.00;1.00;;;;;12.46;73.70;100003.13;4996646;28;45576;-68
2022/11/04 07:41:46;;;;;;;;;1.75;0.75;;;;;12.41;74.63;99981.25;5011828;28;45482;-67
2022/11/04 07:44:12;;;;;;;;;0.00;0.00;;;;;12.63;74.05;100031.22;4996602;28;46467;-67
2022/11/04 07:46:37;;;;;;;;;1.00;1.00;;;;;12.55;74.31;100020.28;4996468;28;45342;-67
2022/11/04 07:49:03;;;;;;;;;4.00;1.00;;;;;12.06;73.93;99931.41;4996256;28;45464;-67
2022/11/04 07:51:31;;;;;;;;;1.00;1.00;;;;;12.51;74.13;100008.97;4996587;28;45395;-67
2022/11/04 07:53:56;;;;;;;;;0.00;0.00;;;;;12.61;73.99;100009.94;4996269;28;45500;-67
2022/11/04 07:56:22;;;;;;;;;0.25;0.25;;;;;12.82;73.37;100045.81;4996188;28;45373;-67
2022/11/04 07:58:48;;;;;;;;;1.00;1.00;;;;;12.81;73.94;100047.66;4996644;28;45413;-67
2022/11/04 08:01:17;;;;;;;;;3.75;1.00;;;;;12.89;73.46;100065.75;4996275;28;45679;-67
2022/11/04 08:03:43;;;;;;;;;1.50;1.00;;;;;12.74;73.60;100044.63;4995824;28;46675;-67
2022/11/04 08:06:11;;;;;;;;;0.00;0.00;;;;;12.95;73.22;100073.31;5011416;28;45436;-67
2022/11/04 08:08:36;;;;;;;;;2.50;1.50;;;;;12.74;73.83;100036.59;4996430;28;45400;-67
2022/11/04 08:11:09;;;;;;;;;0.33;0.33;;;;;13.00;72.56;100081.81;4996220;28;45470;-67
2022/11/04 08:13:36;;;;;;;;;1.00;0.75;;;;;12.50;72.87;100014.44;4995808;28;45462;-67
2022/11/04 08:16:04;;;;;;;;;1.00;1.00;;;;;12.90;73.22;100081.72;4995611;28;45371;-67
2022/11/04 08:18:31;;;;;;;;;0.00;0.00;;;;;12.95;72.70;100084.84;4995879;28;45466;-67
2022/11/04 08:20:57;;;;;;;;;1.75;0.50;;;;;12.79;72.56;100053.13;4995891;28;45579;-67
2022/11/04 08:23:22;;;;;;;;;0.00;0.00;;;;;13.12;72.63;100091.53;4996025;28;45479;-67
2022/11/04 08:25:47;;;;;;;;;0.75;0.75;;;;;12.90;72.48;100044.25;4996144;28;45604;-67
2022/11/04 08:28:16;;;;;;;;;1.00;0.00;;;;;13.29;71.99;100098.22;5010953;28;45366;-67
2022/11/04 08:31:01;;;;;;;;;1.50;0.25;;;;;13.37;71.67;100104.81;4995719;28;45379;-67
2022/11/04 08:33:29;;;;;;;;;2.00;1.00;;;;;13.33;71.38;100093.47;4993370;28;46915;-67
2022/11/04 08:35:59;;;;;;;;;1.00;0.00;;;;;13.36;71.20;100103.97;4995801;28;45438;-67
2022/11/04 08:38:24;;;;;;;;;0.50;0.00;;;;;13.45;70.89;100113.06;4995884;28;45416;-67
2022/11/04 08:40:50;;;;;;;;;0.00;0.00;;;;;13.29;71.07;100108.06;4995866;28;45367;-67
2022/11/04 08:43:16;;;;;;;;;3.00;1.00;;;;;12.69;70.60;100011.16;4994185;28;46081;-67
2022/11/04 08:45:45;;;;;;;;;0.00;0.00;;;;;13.34;71.13;100126.47;5010916;28;45418;-67
2022/11/04 08:48:11;;;;;;;;;0.00;0.00;;;;;13.21;71.08;100113.19;4995696;28;45395;-67
2022/11/04 08:50:36;;;;;;;;;0.00;0.00;;;;;13.32;70.81;100137.31;4995589;28;45564;-67
2022/11/04 08:53:03;;;;;;;;;0.00;0.00;;;;;13.26;71.09;100125.25;4995517;28;46464;-67
2022/11/04 08:55:29;;;;;;;;;1.25;0.25;;;;;13.32;70.23;100131.09;4995446;28;45487;-65
2022/11/04 08:57:54;;;;;;;;;0.25;0.00;;;;;13.25;69.91;100144.13;4995394;28;45425;-66
2022/11/04 09:00:31;;;;;;;;;2.00;1.00;;;;;13.42;70.23;100169.59;4995496;28;45506;-68
2022/11/04 09:03:04;;;;;;;;;1.00;1.00;;;;;13.43;70.17;100174.81;4994485;28;45472;-67
2022/11/04 09:05:30;;;;;;;;;1.00;1.00;;;;;13.45;70.23;100172.84;4995233;28;45476;-66
2022/11/04 09:07:55;;;;;;;;;1.00;1.00;;;;;13.58;70.39;100177.25;4995404;28;45383;-68
2022/11/04 09:10:21;;;;;;;;;1.50;1.00;;;;;13.42;71.78;100146.31;4995162;28;45447;-67
2022/11/04 09:12:46;;;;;;;;;0.50;0.50;;;;;13.69;70.28;100185.25;5010429;28;48170;-66
2022/11/04 09:15:12;;;;;;;;;1.00;0.00;;;;;13.75;70.16;100179.41;5009970;28;45374;-66
2022/11/04 09:17:38;;;;;;;;;0.00;0.00;;;;;13.76;69.71;100173.06;4995103;28;45374;-67
2022/11/04 09:20:04;;;;;;;;;1.00;1.00;;;;;13.84;69.07;100182.31;5026897;28;45390;-67
2022/11/04 09:22:30;;;;;;;;;1.00;1.00;;;;;13.54;68.85;100139.13;4995283;28;45525;-67
2022/11/04 09:24:56;;;;;;;;;0.50;0.00;;;;;13.89;69.27;100201.56;4995004;28;45432;-66
2022/11/04 09:27:21;;;;;;;;;0.00;0.00;;;;;13.83;69.34;100188.66;4995253;28;45962;-66
2022/11/04 09:29:46;;;;;;;;;0.50;0.50;;;;;13.96;68.95;100208.13;4994876;28;45519;-67
2022/11/04 09:32:12;;;;;;;;;0.75;0.75;;;;;14.13;69.37;100215.63;4994706;28;46352;-67
2022/11/04 09:34:37;;;;;;;;;0.00;0.00;;;;;14.51;68.81;100215.22;4994866;28;45366;-69
2022/11/04 09:37:02;;;;;;;;;2.00;0.75;;;;;14.74;66.20;100208.78;4995737;28;45422;-67
2022/11/04 09:39:28;;;;;;;;;0.25;0.25;;;;;14.61;66.87;100219.69;4995066;28;45420;-67
2022/11/04 09:42:19;;;;;;;;;0.75;0.00;;;;;14.68;66.75;100229.94;4994584;28;46304;-67
2022/11/04 09:45:03;;;;;;;;;0.50;0.00;;;;;14.43;67.38;100226.63;4993502;28;45459;-67
2022/11/04 09:47:31;;;;;;;;;0.50;0.00;;;;;14.35;66.17;100248.72;4994797;28;45411;-67
2022/11/04 09:49:58;;;;;;;;;1.75;0.25;;;;;14.39;66.66;100239.44;4994523;28;45445;-67
2022/11/04 09:52:27;;;;;;;;;1.00;1.00;;;;;15.38;64.04;100259.78;4994154;28;45395;-66
2022/11/04 09:55:01;;;;;;;;;0.50;0.50;;;;;16.11;61.87;100259.63;4994633;28;45351;-67
2022/11/04 09:57:27;;;;;;;;;0.00;0.00;;;;;16.55;60.97;100232.34;4994703;28;45539;-67
2022/11/04 09:59:53;;;;;;;;;0.25;0.00;;;;;17.13;58.71;100253.81;4992893;28;45435;-67
2022/11/04 10:02:21;;;;;;;;;1.33;0.33;;;;;16.94;58.70;100264.66;4993161;28;45651;-66
2022/11/04 10:05:05;;;;;;;;;2.67;0.00;;;;;16.68;59.57;100270.59;4994760;28;45686;-67
2022/11/04 10:07:52;;;;;;;;;0.00;0.00;;;;;16.42;61.15;100271.13;4994857;28;45418;-67
2022/11/04 10:10:21;;;;;;;;;1.00;1.00;;;;;16.20;60.27;100282.16;4995026;28;45528;-66
2022/11/04 10:13:04;;;;;;;;;0.00;0.00;;;;;15.96;61.98;100291.44;4994626;28;45646;-67
2022/11/04 10:15:42;;;;;;;;;1.67;1.67;;;;;16.02;61.21;100298.09;4994722;28;45422;-67
2022/11/04 10:18:38;;;;;;;;;0.00;0.00;;;;;15.87;60.95;100301.19;4994582;28;45369;-67
2022/11/04 10:21:14;;;;;;;;;0.00;0.00;;;;;15.59;61.63;100286.63;4994463;28;45300;-67
2022/11/04 10:23:52;;;;;;;;;1.00;0.00;;;;;15.61;61.34;100306.97;4993796;28;45468;-67
2022/11/04 10:26:30;;;;;;;;;1.00;1.00;;;;;15.11;63.67;100210.97;4994091;28;45457;-67
2022/11/04 10:29:03;;;;;;;;;2.00;1.00;;;;;15.87;63.10;100289.56;4992882;28;45477;-68
2022/11/04 10:31:28;;;;;;;;;0.00;0.00;;;;;16.14;60.68;100319.41;4994354;28;45477;-66
2022/11/04 10:34:10;;;;;;;;;0.33;0.00;;;;;16.28;61.17;100339.69;4992945;28;46908;-66
2022/11/04 10:36:38;;;;;;;;;1.67;1.00;;;;;16.18;60.31;100340.63;4994119;28;45520;-66
2022/11/04 10:39:15;;;;;;;;;0.00;0.00;;;;;15.91;59.62;100344.78;4993889;28;45346;-66
2022/11/04 10:41:42;;;;;;;;;1.00;0.00;;;;;15.93;59.37;100350.91;4994105;28;45492;-66
2022/11/04 10:44:18;;;;;;;;;2.00;0.33;;;;;15.93;60.62;100351.75;4992376;28;45524;-66
2022/11/04 10:46:55;;;;;;;;;0.67;0.00;;;;;15.83;59.23;100344.63;4994167;28;45411;-68
2022/11/04 10:49:42;;;;;;;;;1.00;0.00;;;;;15.86;59.64;100360.47;4994070;28;45446;-67
2022/11/04 10:52:08;;;;;;;;;1.00;1.00;;;;;15.89;60.23;100360.22;4994133;28;45407;-67
2022/11/04 10:54:46;;;;;;;;;0.00;0.00;;;;;16.09;59.94;100374.63;4993804;28;46539;-67
2022/11/04 10:57:19;;;;;;;;;0.00;0.00;;;;;15.92;59.28;100387.69;4996071;28;45442;-68
2022/11/04 10:59:52;;;;;;;;;0.00;0.00;;;;;15.77;59.56;100383.63;5029029;28;45770;-66
2022/11/04 11:02:38;;;;;;;;;0.00;0.00;;;;;15.57;58.90;100353.09;4997444;28;45484;-66
2022/11/04 11:05:18;;;;;;;;;1.00;1.00;;;;;15.89;59.62;100387.97;4997283;28;47378;-66
2022/11/04 11:07:46;;;;;;;;;1.33;0.00;;;;;15.80;60.61;100378.88;4997066;28;45354;-66
2022/11/04 11:10:20;;;;;;;;;0.00;0.00;;;;;15.84;60.76;100384.81;4997261;28;45437;-66
2022/11/04 11:13:06;;;;;;;;;1.00;0.00;;;;;15.77;60.57;100391.69;4996818;28;45414;-67
2022/11/04 11:15:33;;;;;;;;;1.67;0.00;;;;;15.70;61.49;100395.91;4996915;28;46219;-67
2022/11/04 11:18:05;;;;;;;;;0.75;0.75;;;;;15.60;61.37;100401.22;4996711;28;45441;-67
2022/11/04 11:20:32;;;;;;;;;0.00;0.00;;;;;15.26;61.04;100391.50;4997162;28;45671;-67
2022/11/04 11:22:58;;;;;;;;;5.00;5.00;;;;;15.21;62.02;100422.44;4997110;28;45360;-66
2022/11/04 11:25:29;;;;;;;;;0.67;0.67;;;;;15.12;62.35;100416.00;4996652;28;46543;-67
2022/11/04 11:27:58;;;;;;;;;1.00;1.00;;;;;14.94;63.11;100423.75;4996524;28;45497;-67
2022/11/04 11:30:30;;;;;;;;;0.00;0.00;;;;;14.77;63.46;100415.25;4996976;28;45331;-69
2022/11/04 11:33:02;;;;;;;;;0.00;0.00;;;;;14.72;64.18;100404.03;4996993;28;45402;-67
2022/11/04 11:35:43;;;;;;;;;2.00;0.00;;;;;14.91;63.27;100435.63;4996533;28;46329;-67
2022/11/04 11:38:21;;;;;;;;;0.75;0.75;;;;;14.83;62.13;100400.47;4996373;28;45419;-67
2022/11/04 11:40:49;;;;;;;;;0.00;0.00;;;;;14.79;61.44;100389.16;4996540;28;45521;-67
2022/11/04 11:43:24;;;;;;;;;1.25;0.00;;;;;15.10;61.64;100445.69;4996692;28;45482;-67
2022/11/04 11:45:50;;;;;;;;;0.00;0.00;;;;;14.91;61.79;100413.28;4996577;28;45573;-67
2022/11/04 11:48:39;;;;;;;;;1.50;0.00;;;;;15.16;63.04;100459.56;4996492;28;45452;-67
2022/11/04 11:51:06;;;;;;;;;0.00;0.00;;;;;15.21;62.59;100465.41;4996480;28;45303;-68
2022/11/04 11:53:35;;;;;;;;;1.00;1.00;;;;;15.16;60.89;100446.13;4996565;28;45572;-68
2022/11/04 11:56:24;;;;;;;;;0.00;0.00;;;;;15.25;62.33;100465.06;4996213;28;46245;-66
2022/11/04 11:59:22;;;;;;;;;1.00;1.00;;;;;15.31;61.15;100475.28;4994816;28;45470;-66
2022/11/04 12:02:07;;;;;;;;;0.00;0.00;;;;;15.18;61.51;100453.09;4994196;28;45422;-67
2022/11/04 12:04:32;;;;;;;;;0.00;0.00;;;;;15.40;62.21;100470.97;5025547;28;45513;-66
2022/11/04 12:07:15;;;;;;;;;1.00;0.00;;;;;15.48;61.49;100490.00;4995376;28;45427;-68
2022/11/04 12:09:45;;;;;;;;;1.00;1.00;;;;;15.29;61.43;100489.81;4995908;28;45294;-66
2022/11/04 12:12:35;;;;;;;;;2.00;2.00;;;;;15.34;62.51;100501.03;5028059;28;45457;-68
2022/11/04 12:15:27;;;;;;;;;1.50;0.50;;;;;15.31;62.23;100507.50;4995887;28;45472;-66